Map

Track Data

SID SEASON NUMBER BASIN SUBBASIN NAME ISO_TIME NATURE LAT LON WMO_WIND WMO_PRES WMO_AGENCY TRACK_TYPE DIST2LAND LANDFALL IFLAG USA_AGENCY USA_ATCF_ID USA_LAT USA_LON USA_RECORD USA_STATUS USA_WIND USA_PRES USA_SSHS USA_R34_NE USA_R34_SE USA_R34_SW USA_R34_NW USA_R50_NE USA_R50_SE USA_R50_SW USA_R50_NW USA_R64_NE USA_R64_SE USA_R64_SW USA_R64_NW USA_POCI USA_ROCI USA_RMW USA_EYE TOKYO_LAT TOKYO_LON TOKYO_GRADE TOKYO_WIND TOKYO_PRES TOKYO_R50_DIR TOKYO_R50_LONG TOKYO_R50_SHORT TOKYO_R30_DIR TOKYO_R30_LONG TOKYO_R30_SHORT TOKYO_LAND CMA_LAT CMA_LON CMA_CAT CMA_WIND CMA_PRES HKO_LAT HKO_LON HKO_CAT HKO_WIND HKO_PRES NEWDELHI_LAT NEWDELHI_LON NEWDELHI_GRADE NEWDELHI_WIND NEWDELHI_PRES NEWDELHI_CI NEWDELHI_DP NEWDELHI_POCI REUNION_LAT REUNION_LON REUNION_TYPE REUNION_WIND REUNION_PRES REUNION_TNUM REUNION_CI REUNION_RMW REUNION_R34_NE REUNION_R34_SE REUNION_R34_SW REUNION_R34_NW REUNION_R50_NE REUNION_R50_SE REUNION_R50_SW REUNION_R50_NW REUNION_R64_NE REUNION_R64_SE REUNION_R64_SW REUNION_R64_NW BOM_LAT BOM_LON BOM_TYPE BOM_WIND BOM_PRES BOM_TNUM BOM_CI BOM_RMW BOM_R34_NE BOM_R34_SE BOM_R34_SW BOM_R34_NW BOM_R50_NE BOM_R50_SE BOM_R50_SW BOM_R50_NW BOM_R64_NE BOM_R64_SE BOM_R64_SW BOM_R64_NW BOM_ROCI BOM_POCI BOM_EYE BOM_POS_METHOD BOM_PRES_METHOD NADI_LAT NADI_LON NADI_CAT NADI_WIND NADI_PRES WELLINGTON_LAT WELLINGTON_LON WELLINGTON_WIND WELLINGTON_PRES DS824_LAT DS824_LON DS824_STAGE DS824_WIND DS824_PRES TD9636_LAT TD9636_LON TD9636_STAGE TD9636_WIND TD9636_PRES TD9635_LAT TD9635_LON TD9635_WIND TD9635_PRES TD9635_ROCI NEUMANN_LAT NEUMANN_LON NEUMANN_CLASS NEUMANN_WIND NEUMANN_PRES MLC_LAT MLC_LON MLC_CLASS MLC_WIND MLC_PRES USA_GUST BOM_GUST BOM_GUST_PER REUNION_GUST REUNION_GUST_PER USA_SEAHGT USA_SEARAD_NE USA_SEARAD_SE USA_SEARAD_SW USA_SEARAD_NW STORM_SPEED STORM_DIR
1943256N26282 1943 62 NA NA NOT_NAMED 1943-09-13 00:00:00 TS 26.0000 -77.8000 30 hurdat_atl main 102 102 O_____________ hurdat_atl AL051943 26.0000 -77.8000 TD 30 -1 7 0
1943256N26282 1943 62 NA NA NOT_NAMED 1943-09-13 03:00:00 TS 26.3676 -77.8128 main 146 146 P_____________ AL051943 26.3676 -77.8128 TD 32 -1 8 1
1943256N26282 1943 62 NA NA NOT_NAMED 1943-09-13 06:00:00 TS 26.8000 -77.8000 35 hurdat_atl main 190 190 O_____________ hurdat_atl AL051943 26.8000 -77.8000 TS 35 0 10 5
1943256N26282 1943 62 NA NA NOT_NAMED 1943-09-13 09:00:00 TS 27.3472 -77.7241 main 234 234 P_____________ AL051943 27.3472 -77.7241 TS 37 0 12 12
1943256N26282 1943 62 NA NA NOT_NAMED 1943-09-13 12:00:00 TS 28.0000 -77.5000 40 hurdat_atl main 279 279 O_____________ hurdat_atl AL051943 28.0000 -77.5000 TS 40 0 15 23
1943256N26282 1943 62 NA NA NOT_NAMED 1943-09-13 15:00:00 TS 28.7278 -77.0530 main 332 332 P_____________ AL051943 28.7278 -77.0530 TS 42 0 17 30
1943256N26282 1943 62 NA NA NOT_NAMED 1943-09-13 18:00:00 TS 29.5000 -76.5000 45 hurdat_atl main 404 404 O_____________ hurdat_atl AL051943 29.5000 -76.5000 TS 45 0 18 31
1943256N26282 1943 62 NA NA NOT_NAMED 1943-09-13 21:00:00 TS 30.2498 -75.9992 main 448 399 P_____________ AL051943 30.2498 -75.9992 TS 45 0 17 30
1943256N26282 1943 62 NA NA NOT_NAMED 1943-09-14 00:00:00 TS 31.0000 -75.5000 45 hurdat_atl main 399 358 O_____________ hurdat_atl AL051943 31.0000 -75.5000 TS 45 0 17 30
1943256N26282 1943 62 NA NA NOT_NAMED 1943-09-14 03:00:00 TS 31.7423 -74.9991 main 362 307 P_____________ AL051943 31.7423 -74.9991 TS 45 0 17 30
1943256N26282 1943 62 NA NA NOT_NAMED 1943-09-14 06:00:00 TS 32.5000 -74.5000 45 hurdat_atl main 307 276 O_____________ hurdat_atl AL051943 32.5000 -74.5000 TS 45 0 18 28
1943256N26282 1943 62 NA NA NOT_NAMED 1943-09-14 09:00:00 TS 33.3073 -73.9995 main 276 260 P_____________ AL051943 33.3073 -73.9995 TS 45 0 18 28
1943256N26282 1943 62 NA NA NOT_NAMED 1943-09-14 12:00:00 TS 34.1000 -73.5000 45 hurdat_atl main 260 247 O_____________ hurdat_atl AL051943 34.1000 -73.5000 TS 45 0 17 29
1943256N26282 1943 62 NA NA NOT_NAMED 1943-09-14 15:00:00 TS 34.8223 -72.9990 main 252 247 P_____________ AL051943 34.8223 -72.9990 TS 45 0 16 30
1943256N26282 1943 62 NA NA NOT_NAMED 1943-09-14 18:00:00 TS 35.5000 -72.5000 45 hurdat_atl main 272 272 O_____________ hurdat_atl AL051943 35.5000 -72.5000 TS 45 0 16 32
1943256N26282 1943 62 NA NA NOT_NAMED 1943-09-14 21:00:00 TS 36.1423 -71.9987 main 316 316 P_____________ AL051943 36.1423 -71.9987 TS 45 0 15 32
1943256N26282 1943 62 NA NA NOT_NAMED 1943-09-15 00:00:00 TS 36.8000 -71.5000 45 hurdat_atl main 357 354 O_____________ hurdat_atl AL051943 36.8000 -71.5000 TS 45 0 16 30
1943256N26282 1943 62 NA NA NOT_NAMED 1943-09-15 03:00:00 TS 37.5195 -71.0207 main 362 331 P_____________ AL051943 37.5195 -71.0207 TS 45 0 17 28
1943256N26282 1943 62 NA NA NOT_NAMED 1943-09-15 06:00:00 TS 38.3000 -70.5000 45 hurdat_atl main 331 273 O_____________ hurdat_atl AL051943 38.3000 -70.5000 TS 45 0 18 28
1943256N26282 1943 62 NA NA NOT_NAMED 1943-09-15 09:00:00 TS 39.1262 -69.9366 main 275 200 P_____________ AL051943 39.1262 -69.9366 TS 42 0 20 31
1943256N26282 1943 62 NA NA NOT_NAMED 1943-09-15 12:00:00 ET 40.0000 -69.2000 40 hurdat_atl main 200 172 O_____________ hurdat_atl AL051943 40.0000 -69.2000 EX 40 -4 22 37
1943256N26282 1943 62 NA NA NOT_NAMED 1943-09-15 15:00:00 ET 40.9007 -68.1678 main 174 174 P_____________ AL051943 40.9007 -68.1678 EX 40 -4 24 43
1943256N26282 1943 62 NA NA NOT_NAMED 1943-09-15 18:00:00 ET 41.8000 -67.0000 40 hurdat_atl main 216 102 O_____________ hurdat_atl AL051943 41.8000 -67.0000 EX 40 -4 24 44
1943256N26282 1943 62 NA NA NOT_NAMED 1943-09-15 21:00:00 ET 42.6562 -65.9038 main 90 23 P_____________ AL051943 42.6562 -65.9038 EX 40 -4 23 44
1943256N26282 1943 62 NA NA NOT_NAMED 1943-09-16 00:00:00 ET 43.5000 -64.8000 40 hurdat_atl main 27 13 O_____________ hurdat_atl AL051943 43.5000 -64.8000 EX 40 -4 23 44
1943256N26282 1943 62 NA NA NOT_NAMED 1943-09-16 03:00:00 ET 44.3339 -63.6607 main 13 0 P_____________ AL051943 44.3339 -63.6607 EX 40 -4 24 44
1943256N26282 1943 62 NA NA NOT_NAMED 1943-09-16 06:00:00 ET 45.2000 -62.5000 40 hurdat_atl main 0 0 O_____________ hurdat_atl AL051943 45.2000 -62.5000 EX 40 -4 24 42
1943256N26282 1943 62 NA NA NOT_NAMED 1943-09-16 09:00:00 ET 46.1331 -61.3330 main 0 0 P_____________ AL051943 46.1331 -61.3330 EX 40 -4 25 41
1943256N26282 1943 62 NA NA NOT_NAMED 1943-09-16 12:00:00 ET 47.1000 -60.1000 40 hurdat_atl main 36 0 O_____________ hurdat_atl AL051943 47.1000 -60.1000 EX 40 -4 26 43
1943256N26282 1943 62 NA NA NOT_NAMED 1943-09-16 15:00:00 ET 48.0250 -58.7735 main 0 0 P_____________ AL051943 48.0250 -58.7735 EX 37 -4 27 45
1943256N26282 1943 62 NA NA NOT_NAMED 1943-09-16 18:00:00 ET 49.0000 -57.3000 35 hurdat_atl main 0 0 O_____________ hurdat_atl AL051943 49.0000 -57.3000 EX 35 -4 28 45
1943256N26282 1943 62 NA NA NOT_NAMED 1943-09-16 21:00:00 ET 50.0279 -55.6834 main 11 11 P_____________ AL051943 50.0279 -55.6834 EX 35 -4 31 46
1943256N26282 1943 62 NA NA NOT_NAMED 1943-09-17 00:00:00 ET 51.2000 -53.8000 35 hurdat_atl main 119 119 O_____________ hurdat_atl AL051943 51.2000 -53.8000 EX 35 -4 36 46
1943256N26282 1943 62 NA NA NOT_NAMED 1943-09-17 03:00:00 ET 52.5601 -51.5542 main 270 270 P_____________ AL051943 52.5601 -51.5542 EX 35 -4 40 46
1943256N26282 1943 62 NA NA NOT_NAMED 1943-09-17 06:00:00 ET 54.0000 -49.0000 35 hurdat_atl main 452 O_____________ hurdat_atl AL051943 54.0000 -49.0000 EX 35 -4 42 46

About IBTrACS Database

This database is a web-friendly format of International Best Track Archive for Climate Stewardship (IBTrACS), a global best track data archive curated by NOAA dating back to 1842.

Updated: 2021-10-25